Turkey Creek, Kentucky
Current Conditions -  °F | °C
As of 2:55 PM on Saturday 25 Oct 2014 (Local Time) from KPBX Reporting Station
Overcast Overcast  
Wind Chill: 64°   Ceiling: 3300
Heat Index: 64°   Visibility: 10mi
Dew Point: 49°   Wind: 3mph
Humidity: 58%   Direction: 210°SSW
Pressure: 29.99"   Gusts: NA
Location:  37.632°N, 82.2603°W
Report Text: KPBX 251855Z AUTO 21003KT 10SM BKN033 OVC044 18/09 A2999 RMK AO2 T01750092
Loading
Personal Weather Stations






























Interactive Weather Map
Tropical Storm Tracking
New forecast layout! Learn more

10-Day Weather Forecast

Advertisements
Track Severe Weather on mobile